createdAt,value
2022-10-18T00:01:11.998Z,100421.44
2022-10-18T00:03:39.757Z,100409.09
2022-10-18T00:06:09.357Z,100418.78
2022-10-18T00:08:38.715Z,100417.03
2022-10-18T00:11:07.533Z,100399.84
2022-10-18T00:13:35.045Z,100396.28
2022-10-18T00:16:04.450Z,100389.47
2022-10-18T00:18:32.359Z,100397.97
2022-10-18T00:21:20.574Z,100401.16
2022-10-18T00:23:49.506Z,100393.94
2022-10-18T00:26:23.249Z,100396.81
2022-10-18T00:28:57.076Z,100394.34
2022-10-18T00:31:24.542Z,100389.34
2022-10-18T00:33:54.898Z,100370.78
2022-10-18T00:36:23.066Z,100378.59
2022-10-18T00:38:51.059Z,100361.53
2022-10-18T00:41:24.792Z,100370.34
2022-10-18T00:44:00.404Z,100361.84
2022-10-18T00:46:33.569Z,100346.66
2022-10-18T00:49:05.486Z,100338.00
2022-10-18T00:51:41.603Z,100340.66
2022-10-18T00:54:09.087Z,100351.66
2022-10-18T00:56:36.899Z,100338.81
2022-10-18T00:59:04.648Z,100329.88
2022-10-18T01:01:32.155Z,100338.59
2022-10-18T01:03:59.973Z,100328.75
2022-10-18T01:06:28.981Z,100326.19
2022-10-18T01:09:37.943Z,100325.56
2022-10-18T01:12:20.810Z,100327.75
2022-10-18T01:15:10.744Z,100325.97
2022-10-18T01:17:52.324Z,100327.28
2022-10-18T01:20:41.092Z,100320.38
2022-10-18T01:23:23.807Z,100328.81
2022-10-18T01:26:06.599Z,100334.88
2022-10-18T01:28:58.704Z,100336.56
2022-10-18T01:31:35.125Z,100332.25
2022-10-18T01:34:08.484Z,100339.78
2022-10-18T01:36:49.790Z,100327.91
2022-10-18T01:39:22.823Z,100313.91
2022-10-18T01:41:53.420Z,100319.97
2022-10-18T01:44:27.207Z,100319.03
2022-10-18T01:46:57.234Z,100313.91
2022-10-18T01:49:26.166Z,100313.91
2022-10-18T01:51:54.060Z,100310.63
2022-10-18T01:54:33.117Z,100299.72
2022-10-18T01:57:36.901Z,100301.41
2022-10-18T02:00:10.525Z,100296.22
2022-10-18T02:02:57.122Z,100289.16
2022-10-18T02:05:48.284Z,100296.34
2022-10-18T02:08:34.695Z,100280.81
2022-10-18T02:11:08.421Z,100287.63
2022-10-18T02:13:41.610Z,100278.19
2022-10-18T02:16:36.260Z,100283.75
2022-10-18T02:19:44.004Z,100270.50
2022-10-18T02:22:13.519Z,100273.19
2022-10-18T02:24:54.289Z,100287.28
2022-10-18T02:27:22.422Z,100285.16
2022-10-18T02:29:50.205Z,100264.38
2022-10-18T02:32:32.374Z,100273.28
2022-10-18T02:35:09.072Z,100263.59
2022-10-18T02:37:40.514Z,100254.88
2022-10-18T02:40:10.285Z,100262.56
2022-10-18T02:42:59.463Z,100243.44
2022-10-18T02:45:27.501Z,100237.06
2022-10-18T02:47:55.010Z,100243.00
2022-10-18T02:50:22.442Z,100249.63
2022-10-18T02:52:49.900Z,100248.94
2022-10-18T02:55:17.407Z,100240.38
2022-10-18T02:57:44.976Z,100229.47
2022-10-18T03:00:13.050Z,100222.34
2022-10-18T03:02:40.529Z,100216.72
2022-10-18T03:05:08.292Z,100215.69
2022-10-18T03:07:35.859Z,100216.34
2022-10-18T03:10:03.566Z,100224.19
2022-10-18T03:12:31.077Z,100211.16
2022-10-18T03:14:58.451Z,100198.19
2022-10-18T03:17:26.087Z,100204.41
2022-10-18T03:19:53.526Z,100191.34
2022-10-18T03:22:21.043Z,100195.78
2022-10-18T03:24:48.509Z,100190.78
2022-10-18T03:27:15.998Z,100174.41
2022-10-18T03:29:43.393Z,100178.84
2022-10-18T03:32:10.895Z,100167.41
2022-10-18T03:34:38.392Z,100168.53
2022-10-18T03:37:05.899Z,100157.41
2022-10-18T03:39:33.306Z,100150.34
2022-10-18T03:42:00.780Z,100145.81
2022-10-18T03:44:28.177Z,100156.16
2022-10-18T03:46:55.648Z,100153.41
2022-10-18T03:49:23.094Z,100159.28
2022-10-18T03:51:50.548Z,100137.59
2022-10-18T03:54:21.228Z,100125.91
2022-10-18T03:56:48.697Z,100111.28
2022-10-18T03:59:17.190Z,100123.41
2022-10-18T04:01:44.599Z,100106.72
2022-10-18T04:04:12.130Z,100131.78
2022-10-18T04:06:39.598Z,100119.66
2022-10-18T04:09:09.474Z,100122.09
2022-10-18T04:11:37.939Z,100117.91
2022-10-18T04:14:07.654Z,100112.91
2022-10-18T04:19:03.804Z,100109.72
2022-10-18T04:21:31.292Z,100104.22
2022-10-18T04:23:58.658Z,100100.47
2022-10-18T04:26:26.246Z,100098.50
2022-10-18T04:28:56.061Z,100095.22
2022-10-18T04:31:23.637Z,100091.13
2022-10-18T04:33:51.054Z,100090.47
2022-10-18T04:36:18.581Z,100075.97
2022-10-18T04:38:46.003Z,100070.63
2022-10-18T04:41:13.506Z,100073.75
2022-10-18T04:43:40.932Z,100077.34
2022-10-18T04:46:08.614Z,100067.84
2022-10-18T04:48:36.027Z,100069.34
2022-10-18T04:51:03.639Z,100052.84
2022-10-18T04:53:31.367Z,100067.75
2022-10-18T04:55:58.964Z,100063.88
2022-10-18T04:58:26.646Z,100059.66
2022-10-18T05:00:54.411Z,100059.03
2022-10-18T05:03:21.932Z,100047.31
2022-10-18T05:06:01.431Z,100054.69
2022-10-18T05:08:30.597Z,100056.03
2022-10-18T05:10:58.279Z,100052.06
2022-10-18T05:13:26.098Z,100051.97
2022-10-18T05:15:53.610Z,100061.41
2022-10-18T05:18:21.047Z,100062.97
2022-10-18T05:20:48.571Z,100069.09
2022-10-18T05:23:15.964Z,100066.41
2022-10-18T05:25:44.158Z,100065.47
2022-10-18T05:28:34.571Z,100069.03
2022-10-18T05:31:03.470Z,100076.78
2022-10-18T05:33:31.838Z,100079.50
2022-10-18T05:35:59.785Z,100062.56
2022-10-18T05:38:27.358Z,100061.84
2022-10-18T05:40:54.895Z,100072.09
2022-10-18T05:43:24.623Z,100073.44
2022-10-18T05:45:52.092Z,100069.91
2022-10-18T05:48:19.546Z,100069.66
2022-10-18T05:50:50.011Z,100067.97
2022-10-18T05:53:37.461Z,100060.44
2022-10-18T05:56:06.511Z,100065.84
2022-10-18T05:58:34.382Z,100051.53
2022-10-18T06:01:32.956Z,100061.50
2022-10-18T06:13:33.954Z,100023.28
2022-10-18T06:33:50.603Z,99986.84
2022-10-18T06:36:27.685Z,99965.06
2022-10-18T06:40:08.911Z,99955.75
2022-10-18T06:43:26.473Z,99944.56
2022-10-18T06:47:10.397Z,99909.19
2022-10-18T06:50:14.722Z,99876.47
2022-10-18T06:52:45.041Z,99861.56
2022-10-18T06:55:12.498Z,99871.97
2022-10-18T06:57:39.874Z,99881.41
2022-10-18T07:00:08.195Z,99890.97
2022-10-18T07:02:35.756Z,99869.69
2022-10-18T07:05:03.529Z,99854.31
2022-10-18T07:07:31.880Z,99845.81
2022-10-18T07:09:59.745Z,99823.66
2022-10-18T07:12:27.173Z,99826.22
2022-10-18T07:14:55.297Z,99810.97
2022-10-18T07:17:22.865Z,99786.34
2022-10-18T07:19:50.340Z,99796.84
2022-10-18T07:22:17.845Z,99791.91
2022-10-18T07:24:45.283Z,99779.91
2022-10-18T07:27:12.808Z,99760.41
2022-10-18T07:29:41.019Z,99742.13
2022-10-18T07:32:08.531Z,99747.69
2022-10-18T07:34:36.056Z,99713.47
2022-10-18T07:37:03.756Z,99699.59
2022-10-18T07:39:31.171Z,99707.16
2022-10-18T07:41:58.732Z,99696.09
2022-10-18T07:44:26.188Z,99678.78
2022-10-18T07:46:53.884Z,99676.09
2022-10-18T07:49:21.392Z,99656.47
2022-10-18T07:51:48.867Z,99640.94
2022-10-18T07:54:16.443Z,99630.81
2022-10-18T07:56:43.852Z,99612.94
2022-10-18T07:59:11.706Z,99604.41
2022-10-18T08:01:46.759Z,99601.03
2022-10-18T08:04:16.572Z,99596.97
2022-10-18T08:06:44.154Z,99576.44
2022-10-18T08:09:11.547Z,99560.00
2022-10-18T08:11:39.249Z,99551.09
2022-10-18T08:14:06.662Z,99542.50
2022-10-18T08:16:34.177Z,99527.81
2022-10-18T08:19:01.663Z,99521.75
2022-10-18T08:21:29.122Z,99515.13
2022-10-18T08:23:56.591Z,99504.09
2022-10-18T08:26:24.541Z,99468.56
2022-10-18T08:28:54.269Z,99441.31
2022-10-18T08:31:26.035Z,99417.91
2022-10-18T08:33:57.199Z,99374.28
2022-10-18T08:36:25.197Z,99370.56
2022-10-18T08:38:52.674Z,99335.31
2022-10-18T08:41:28.809Z,99328.63
2022-10-18T08:44:23.382Z,99327.78
2022-10-18T08:47:00.132Z,99289.19
2022-10-18T08:49:44.170Z,99252.50
2022-10-18T08:52:35.217Z,99248.97
2022-10-18T08:55:11.447Z,99234.31
2022-10-18T08:57:40.193Z,99246.03
2022-10-18T09:00:25.830Z,99255.06
2022-10-18T09:03:24.325Z,99249.13
2022-10-18T09:05:56.415Z,99270.09
2022-10-18T09:08:42.533Z,99306.91
2022-10-18T09:11:27.595Z,99294.25
2022-10-18T09:14:29.068Z,99287.56
2022-10-18T09:17:06.045Z,99289.16
2022-10-18T09:19:55.912Z,99278.25
2022-10-18T09:22:50.078Z,99269.88
2022-10-18T09:25:22.543Z,99273.44
2022-10-18T09:27:54.753Z,99260.63
2022-10-18T09:30:41.409Z,99235.03
2022-10-18T09:33:24.423Z,99226.97
2022-10-18T09:36:05.051Z,99229.84
2022-10-18T09:38:40.921Z,99229.03
2022-10-18T09:41:32.287Z,99203.03
2022-10-18T09:44:13.160Z,99216.84
2022-10-18T09:46:46.682Z,99224.88
2022-10-18T09:49:19.304Z,99205.41
2022-10-18T09:51:50.307Z,99204.69
2022-10-18T09:54:32.544Z,99194.66
2022-10-18T09:57:32.607Z,99193.31
2022-10-18T10:00:03.772Z,99177.00
2022-10-18T10:02:32.665Z,99173.75
2022-10-18T10:05:00.208Z,99155.03
2022-10-18T10:07:35.497Z,99162.97
2022-10-18T10:10:29.359Z,99158.22
2022-10-18T10:13:27.912Z,99149.06
2022-10-18T10:15:57.228Z,99140.81
2022-10-18T10:18:54.406Z,99136.56
2022-10-18T10:21:22.422Z,99136.44
2022-10-18T10:23:57.088Z,99128.78
2022-10-18T10:26:38.984Z,99125.69
2022-10-18T10:29:45.158Z,99123.31
2022-10-18T10:32:18.827Z,99107.81
2022-10-18T10:34:46.582Z,99116.44
2022-10-18T10:37:37.825Z,99110.72
2022-10-18T10:40:20.478Z,99110.81
2022-10-18T10:43:00.014Z,99093.84
2022-10-18T10:45:58.062Z,99105.13
2022-10-18T10:48:31.018Z,99090.69
2022-10-18T10:51:04.414Z,99073.59
2022-10-18T10:53:46.248Z,99087.78
2022-10-18T10:56:27.535Z,99073.13
2022-10-18T10:58:58.542Z,99073.28
2022-10-18T11:01:32.772Z,99063.09
2022-10-18T11:04:27.335Z,99073.78
2022-10-18T11:07:22.589Z,99046.41
2022-10-18T11:10:01.946Z,99045.09
2022-10-18T11:12:33.531Z,99038.34
2022-10-18T11:15:10.646Z,99035.13
2022-10-18T11:17:45.324Z,99043.94
2022-10-18T11:20:22.115Z,99052.59
2022-10-18T11:23:00.948Z,99057.81
2022-10-18T11:26:03.435Z,99047.53
2022-10-18T11:28:57.709Z,99043.34
2022-10-18T11:31:35.907Z,99060.50
2022-10-18T11:34:31.608Z,99040.84
2022-10-18T11:37:27.085Z,99050.28
2022-10-18T11:40:13.742Z,99043.47
2022-10-18T11:43:13.216Z,99045.34
2022-10-18T11:46:22.163Z,99052.31
2022-10-18T11:48:49.625Z,99041.09
2022-10-18T11:51:34.066Z,99054.97
2022-10-18T11:54:24.887Z,99053.38
2022-10-18T11:57:18.226Z,99054.25
2022-10-18T11:59:48.607Z,99055.16
2022-10-18T12:02:37.183Z,99047.53
2022-10-18T12:08:02.832Z,99042.44
2022-10-18T12:10:52.792Z,99049.38
2022-10-18T12:13:57.793Z,99042.56
2022-10-18T12:16:50.354Z,99043.44
2022-10-18T12:19:26.432Z,99044.38
2022-10-18T12:22:21.945Z,99054.75
2022-10-18T12:24:49.448Z,99047.84
2022-10-18T12:27:17.670Z,99059.97
2022-10-18T12:29:46.677Z,99060.00
2022-10-18T12:32:22.729Z,99049.69
2022-10-18T12:34:52.651Z,99047.09
2022-10-18T12:37:35.559Z,99048.19
2022-10-18T12:40:14.385Z,99052.41
2022-10-18T12:42:47.119Z,99049.81
2022-10-18T12:45:27.974Z,99050.75
2022-10-18T12:47:59.980Z,99044.69
2022-10-18T12:50:27.408Z,99049.91
2022-10-18T12:53:25.487Z,99042.19
2022-10-18T12:55:54.059Z,99050.88
2022-10-18T12:58:21.935Z,99046.56
2022-10-18T13:00:49.380Z,99061.19
2022-10-18T13:03:17.429Z,99046.50
2022-10-18T13:05:56.077Z,99054.34
2022-10-18T13:08:38.095Z,99059.50
2022-10-18T13:11:08.276Z,99068.09
2022-10-18T13:14:06.910Z,99063.00
2022-10-18T13:16:56.351Z,99057.00
2022-10-18T13:20:07.668Z,99058.75
2022-10-18T13:22:56.538Z,99052.72
2022-10-18T13:25:49.870Z,99050.88
2022-10-18T13:28:36.157Z,99057.91
2022-10-18T13:31:27.264Z,99057.91
2022-10-18T13:33:54.770Z,99063.88
2022-10-18T13:36:25.273Z,99061.28
2022-10-18T13:38:58.281Z,99069.91
2022-10-18T13:41:34.255Z,99074.22
2022-10-18T13:44:23.965Z,99070.78
2022-10-18T13:46:51.642Z,99070.78
2022-10-18T13:49:43.998Z,99086.34
2022-10-18T13:52:17.198Z,99097.44
2022-10-18T13:54:44.726Z,99092.25
2022-10-18T13:57:41.235Z,99102.59
2022-10-18T14:00:17.596Z,99103.38
2022-10-18T14:03:44.084Z,99115.53
2022-10-18T14:06:25.470Z,99108.66
2022-10-18T14:09:06.189Z,99106.81
2022-10-18T14:11:47.543Z,99106.78
2022-10-18T14:14:43.600Z,99112.03
2022-10-18T14:17:15.415Z,99117.00
2022-10-18T14:19:53.947Z,99117.78
2022-10-18T14:22:25.371Z,99115.03
2022-10-18T14:24:58.331Z,99107.19
2022-10-18T14:27:34.434Z,99120.03
2022-10-18T14:30:15.626Z,99107.03
2022-10-18T14:32:48.828Z,99115.63
2022-10-18T14:35:32.510Z,99115.53
2022-10-18T14:38:02.540Z,99114.63
2022-10-18T14:40:31.706Z,99113.78
2022-10-18T14:43:04.049Z,99119.78
2022-10-18T14:45:31.648Z,99122.31
2022-10-18T14:48:25.297Z,99127.53
2022-10-18T14:51:00.586Z,99120.44
2022-10-18T14:53:36.052Z,99123.03
2022-10-18T14:56:07.473Z,99149.78
2022-10-18T14:58:41.648Z,99156.69
2022-10-18T15:01:20.065Z,99155.88
2022-10-18T15:03:48.471Z,99148.03
2022-10-18T15:06:19.962Z,99159.19
2022-10-18T15:08:54.549Z,99157.44
2022-10-18T15:11:25.670Z,99154.69
2022-10-18T15:13:58.042Z,99157.31
2022-10-18T15:16:28.346Z,99166.78
2022-10-18T15:19:07.212Z,99174.50
2022-10-18T15:21:36.187Z,99170.25
2022-10-18T15:24:34.706Z,99179.81
2022-10-18T15:27:29.882Z,99190.13
2022-10-18T15:30:33.022Z,99203.06
2022-10-18T15:33:27.522Z,99189.16
2022-10-18T15:39:31.297Z,99209.88
2022-10-18T15:42:01.553Z,99220.19
2022-10-18T15:44:48.513Z,99210.75
2022-10-18T15:47:23.068Z,99230.44
2022-10-18T15:49:58.504Z,99231.38
2022-10-18T15:52:42.761Z,99239.25
2022-10-18T15:55:31.731Z,99241.84
2022-10-18T15:58:32.089Z,99245.38
2022-10-18T16:01:01.402Z,99248.63
2022-10-18T16:03:29.112Z,99243.47
2022-10-18T16:06:00.711Z,99239.09
2022-10-18T16:08:32.571Z,99233.06
2022-10-18T16:11:00.317Z,99243.38
2022-10-18T16:13:28.282Z,99251.94
2022-10-18T16:15:59.721Z,99257.09
2022-10-18T16:18:27.947Z,99254.41
2022-10-18T16:20:55.943Z,99267.38
2022-10-18T16:23:26.164Z,99256.13
2022-10-18T16:25:53.732Z,99252.69
2022-10-18T16:28:23.939Z,99269.84
2022-10-18T16:30:57.778Z,99278.41
2022-10-18T16:33:25.543Z,99278.47
2022-10-18T16:35:54.207Z,99282.69
2022-10-18T16:38:24.400Z,99285.25
2022-10-18T16:40:52.371Z,99285.97
2022-10-18T16:43:19.770Z,99296.97
2022-10-18T16:45:47.946Z,99305.53
2022-10-18T16:48:20.969Z,99303.69
2022-10-18T16:50:49.305Z,99316.50
2022-10-18T16:53:16.831Z,99343.00
2022-10-18T16:55:44.265Z,99332.56
2022-10-18T16:58:18.141Z,99327.25
2022-10-18T17:00:47.081Z,99329.84
2022-10-18T17:03:14.954Z,99340.03
2022-10-18T17:05:43.133Z,99328.69
2022-10-18T17:08:20.734Z,99324.34
2022-10-18T17:10:50.038Z,99335.22
2022-10-18T17:13:17.476Z,99337.59
2022-10-18T17:15:45.630Z,99322.84
2022-10-18T17:18:19.461Z,99333.19
2022-10-18T17:20:47.083Z,99313.34
2022-10-18T17:23:14.774Z,99316.00
2022-10-18T17:25:57.491Z,99311.63
2022-10-18T17:28:32.410Z,99329.69
2022-10-18T17:30:59.855Z,99325.41
2022-10-18T17:33:27.320Z,99341.53
2022-10-18T17:35:54.718Z,99348.25
2022-10-18T17:38:22.202Z,99343.03
2022-10-18T17:40:49.694Z,99346.31
2022-10-18T17:43:17.196Z,99325.66
2022-10-18T17:45:55.244Z,99340.50
2022-10-18T17:48:24.727Z,99347.22
2022-10-18T17:50:52.206Z,99334.28
2022-10-18T17:53:23.019Z,99341.84
2022-10-18T17:55:50.795Z,99341.84
2022-10-18T17:58:18.196Z,99335.66
2022-10-18T18:00:45.700Z,99345.97
2022-10-18T18:03:13.631Z,99342.31
2022-10-18T18:05:41.432Z,99364.72
2022-10-18T18:08:08.982Z,99357.75
2022-10-18T18:10:36.583Z,99364.63
2022-10-18T18:13:04.069Z,99361.19
2022-10-18T18:15:32.069Z,99355.13
2022-10-18T18:17:59.704Z,99349.00
2022-10-18T18:20:27.212Z,99356.63
2022-10-18T18:22:54.714Z,99366.75
2022-10-18T18:25:22.146Z,99363.94
2022-10-18T18:27:49.591Z,99347.44
2022-10-18T18:30:18.087Z,99354.16
2022-10-18T18:32:45.622Z,99352.22
2022-10-18T18:35:13.131Z,99365.81
2022-10-18T18:37:40.552Z,99347.59
2022-10-18T18:40:08.697Z,99362.84
2022-10-18T18:42:36.349Z,99371.53
2022-10-18T18:45:04.302Z,99366.38
2022-10-18T18:47:35.457Z,99350.00
2022-10-18T18:50:03.100Z,99347.53
2022-10-18T18:52:31.191Z,99355.13
2022-10-18T18:54:58.855Z,99355.03
2022-10-18T18:57:26.268Z,99354.06
2022-10-18T18:59:53.702Z,99350.53
2022-10-18T19:02:21.309Z,99351.94
2022-10-18T19:04:48.902Z,99336.28
2022-10-18T19:07:16.570Z,99351.84
2022-10-18T19:09:44.910Z,99346.56
2022-10-18T19:12:12.777Z,99357.78
2022-10-18T19:14:41.236Z,99356.88
2022-10-18T19:17:09.564Z,99363.00
2022-10-18T19:19:39.538Z,99367.06
2022-10-18T19:22:10.288Z,99375.53
2022-10-18T19:24:37.849Z,99378.19
2022-10-18T19:27:12.581Z,99373.88
2022-10-18T19:29:41.235Z,99373.69
2022-10-18T19:32:12.280Z,99371.00
2022-10-18T19:34:40.602Z,99363.16
2022-10-18T19:37:09.570Z,99372.84
2022-10-18T19:39:37.523Z,99374.66
2022-10-18T19:42:09.102Z,99374.66
2022-10-18T19:44:37.376Z,99382.72
2022-10-18T19:47:07.041Z,99380.25
2022-10-18T19:49:34.540Z,99371.81
2022-10-18T19:52:02.096Z,99376.38
2022-10-18T19:54:29.802Z,99361.81
2022-10-18T19:56:57.239Z,99368.00
2022-10-18T19:59:24.943Z,99365.63
2022-10-18T20:01:52.451Z,99359.50
2022-10-18T20:04:19.865Z,99362.13
2022-10-18T20:06:47.740Z,99353.50
2022-10-18T20:09:19.313Z,99365.59
2022-10-18T20:11:48.268Z,99360.31
2022-10-18T20:14:15.910Z,99360.38
2022-10-18T20:16:43.395Z,99359.50
2022-10-18T20:19:11.789Z,99339.78
2022-10-18T20:21:40.052Z,99325.19
2022-10-18T20:24:09.439Z,99320.00
2022-10-18T20:26:36.980Z,99317.50
2022-10-18T20:29:05.022Z,99317.56
2022-10-18T20:31:35.727Z,99325.16
2022-10-18T20:34:06.838Z,99332.84
2022-10-18T20:36:35.015Z,99336.97
2022-10-18T20:39:03.095Z,99333.34
2022-10-18T20:41:38.144Z,99330.72
2022-10-18T20:44:09.833Z,99327.03
2022-10-18T20:46:38.237Z,99326.22
2022-10-18T20:49:07.576Z,99328.78
2022-10-18T20:51:35.815Z,99335.66
2022-10-18T20:56:35.449Z,99328.84
2022-10-18T20:59:06.226Z,99316.91
2022-10-18T21:01:35.775Z,99311.84
2022-10-18T21:04:06.413Z,99304.94
2022-10-18T21:06:37.449Z,99325.84
2022-10-18T21:09:08.175Z,99333.63
2022-10-18T21:11:38.442Z,99330.28
2022-10-18T21:14:07.402Z,99319.88
2022-10-18T21:16:36.018Z,99338.84
2022-10-18T21:19:08.743Z,99332.84
2022-10-18T21:21:36.833Z,99331.84
2022-10-18T21:24:07.138Z,99320.69
2022-10-18T21:26:36.451Z,99331.06
2022-10-18T21:29:04.761Z,99318.22
2022-10-18T21:31:39.136Z,99320.00
2022-10-18T21:34:12.864Z,99319.06
2022-10-18T21:36:42.711Z,99310.50
2022-10-18T21:39:15.995Z,99308.78
2022-10-18T21:41:44.251Z,99318.22
2022-10-18T21:44:12.199Z,99317.31
2022-10-18T21:46:40.741Z,99315.56
2022-10-18T21:49:08.171Z,99312.19
2022-10-18T21:51:36.154Z,99310.28
2022-10-18T21:54:04.025Z,99310.47
2022-10-18T21:56:35.991Z,99313.97
2022-10-18T21:59:04.290Z,99303.50
2022-10-18T22:01:36.838Z,99294.00
2022-10-18T22:04:07.097Z,99298.47
2022-10-18T22:09:08.793Z,99299.50
2022-10-18T22:11:40.853Z,99298.59
2022-10-18T22:14:08.466Z,99290.75
2022-10-18T22:16:36.174Z,99300.22
2022-10-18T22:19:05.592Z,99292.41
2022-10-18T22:21:33.912Z,99296.00
2022-10-18T22:24:05.642Z,99284.81
2022-10-18T22:26:36.327Z,99281.31
2022-10-18T22:29:15.604Z,99272.09
2022-10-18T22:31:46.249Z,99272.91
2022-10-18T22:34:17.271Z,99260.78
2022-10-18T22:36:45.262Z,99255.69
2022-10-18T22:39:14.595Z,99261.88
2022-10-18T22:41:42.651Z,99268.75
2022-10-18T22:44:12.945Z,99266.16
2022-10-18T22:46:41.794Z,99255.00
2022-10-18T22:49:09.201Z,99265.44
2022-10-18T22:51:36.664Z,99267.13
2022-10-18T22:54:04.205Z,99266.13
2022-10-18T22:56:31.600Z,99257.34
2022-10-18T22:58:59.055Z,99257.56
2022-10-18T23:01:26.525Z,99241.28
2022-10-18T23:03:55.667Z,99234.41
2022-10-18T23:06:25.841Z,99234.44
2022-10-18T23:08:55.179Z,99220.47
2022-10-18T23:11:23.704Z,99229.22
2022-10-18T23:13:51.968Z,99223.97
2022-10-18T23:16:20.550Z,99234.31
2022-10-18T23:18:52.695Z,99228.28
2022-10-18T23:21:21.565Z,99212.88
2022-10-18T23:23:49.011Z,99213.78
2022-10-18T23:26:19.682Z,99214.56
2022-10-18T23:28:49.872Z,99205.16
2022-10-18T23:31:23.164Z,99196.56
2022-10-18T23:33:52.846Z,99193.94
2022-10-18T23:36:21.480Z,99193.22
2022-10-18T23:38:49.242Z,99188.13
2022-10-18T23:41:17.676Z,99188.00
2022-10-18T23:43:45.873Z,99182.88
2022-10-18T23:46:14.618Z,99181.84
2022-10-18T23:48:42.576Z,99176.91
2022-10-18T23:51:10.858Z,99156.16
2022-10-18T23:53:38.715Z,99175.16
2022-10-18T23:56:16.336Z,99184.75
2022-10-18T23:58:45.211Z,99171.69
